Time;durP1;ratioP1;P1;durP2;ratioP2;P2;SDS_P1;SDS_P2;PMS_P1;PMS_P2;Temp;Humidity;BMP_temperature;BMP_pressure;BME280_temperature;BME280_humidity;BME280_pressure;Samples;Min_cycle;Max_cycle;Signal;HPM_P1;HPM_P2
2022/12/21 00:01:30;;;;;;;;;;;4.00;99.90;;;;;;4986404;28;19921;-72
2022/12/21 00:03:57;;;;;;;;;;;3.90;99.90;;;;;;4989160;28;19936;-72
2022/12/21 00:06:23;;;;;;;;;;;3.80;99.90;;;;;;4987565;28;20020;-72
2022/12/21 00:08:50;;;;;;;;;;;3.70;99.90;;;;;;4990867;28;20535;-72
2022/12/21 00:11:16;;;;;;;;;;;3.70;99.90;;;;;;4986866;28;20012;-72
2022/12/21 00:13:42;;;;;;;;;;;4.30;99.90;;;;;;4988053;28;19929;-72
2022/12/21 00:16:10;;;;;;;;;;;3.70;99.90;;;;;;4988921;28;20815;-72
2022/12/21 00:18:36;;;;;;;;;;;3.70;99.90;;;;;;4986581;28;19925;-72
2022/12/21 00:21:01;;;;;;;;;;;3.80;99.90;;;;;;4989666;28;19921;-72
2022/12/21 00:23:28;;;;;;;;;;;3.80;99.90;;;;;;4986708;28;19929;-72
2022/12/21 00:25:53;;;;;;;;;;;3.80;99.90;;;;;;4989305;28;19929;-72
2022/12/21 00:28:19;;;;;;;;;;;3.80;99.90;;;;;;4987105;28;19976;-72
2022/12/21 00:30:44;;;;;;;;;;;3.80;99.90;;;;;;4989000;28;19941;-72
2022/12/21 00:33:10;;;;;;;;;;;3.80;99.90;;;;;;4987472;28;19929;-72
2022/12/21 00:35:38;;;;;;;;;;;4.50;99.90;;;;;;4988134;28;20366;-72
2022/12/21 00:38:04;;;;;;;;;;;3.50;99.90;;;;;;4989689;28;19928;-72
2022/12/21 00:40:29;;;;;;;;;;;4.00;99.90;;;;;;4986365;28;19922;-72
2022/12/21 00:42:55;;;;;;;;;;;3.20;99.90;;;;;;4990019;28;20404;-71
2022/12/21 00:45:20;;;;;;;;;;;3.20;99.90;;;;;;4986980;28;20288;-71
2022/12/21 00:47:47;;;;;;;;;;;3.20;99.90;;;;;;4987644;28;19961;-71
2022/12/21 00:50:13;;;;;;;;;;;3.20;99.90;;;;;;4987452;28;19926;-72
2022/12/21 00:52:38;;;;;;;;;;;3.80;99.90;;;;;;4986932;28;19928;-71
2022/12/21 00:55:04;;;;;;;;;;;3.20;99.90;;;;;;4987927;28;19926;-71
2022/12/21 00:57:29;;;;;;;;;;;3.20;99.90;;;;;;4984450;28;20341;-72
2022/12/21 00:59:55;;;;;;;;;;;3.10;99.90;;;;;;4989284;28;19952;-71
2022/12/21 01:02:20;;;;;;;;;;;3.00;99.90;;;;;;4986876;28;20337;-72
2022/12/21 01:04:46;;;;;;;;;;;2.90;99.90;;;;;;4988048;28;19929;-72
2022/12/21 01:07:11;;;;;;;;;;;2.80;99.90;;;;;;4987645;28;19928;-72
2022/12/21 01:09:37;;;;;;;;;;;2.80;99.90;;;;;;4985479;28;19930;-72
2022/12/21 01:12:02;;;;;;;;;;;2.70;99.90;;;;;;4984177;28;19969;-72
2022/12/21 01:14:28;;;;;;;;;;;2.70;99.90;;;;;;4986301;28;19968;-72
2022/12/21 01:16:53;;;;;;;;;;;2.60;99.90;;;;;;4983230;28;19921;-72
2022/12/21 01:19:20;;;;;;;;;;;4.10;99.90;;;;;;4982733;28;20267;-72
2022/12/21 01:21:46;;;;;;;;;;;2.60;99.90;;;;;;4985299;28;19968;-72
2022/12/21 01:24:12;;;;;;;;;;;2.60;99.90;;;;;;4983838;28;20381;-72
2022/12/21 01:26:38;;;;;;;;;;;2.60;99.90;;;;;;4983310;28;20375;-72
2022/12/21 01:29:04;;;;;;;;;;;2.60;99.90;;;;;;4984884;28;20366;-72
2022/12/21 01:31:29;;;;;;;;;;;3.90;99.90;;;;;;4984158;28;19929;-72
2022/12/21 01:33:55;;;;;;;;;;;2.60;99.90;;;;;;4986101;28;19949;-72
2022/12/21 01:36:20;;;;;;;;;;;2.50;99.90;;;;;;4979813;28;19922;-72
2022/12/21 01:38:46;;;;;;;;;;;2.50;99.90;;;;;;4979341;28;20061;-72
2022/12/21 01:41:15;;;;;;;;;;;2.40;99.90;;;;;;4984920;28;20293;-71
2022/12/21 01:43:47;;;;;;;;;;;2.40;99.90;;;;;;4982761;28;19930;-72
2022/12/21 01:46:16;;;;;;;;;;;2.30;99.90;;;;;;4981952;28;19964;-71
2022/12/21 01:48:45;;;;;;;;;;;2.40;99.90;;;;;;4983429;28;19922;-72
2022/12/21 01:51:12;;;;;;;;;;;2.40;99.90;;;;;;4983842;28;20025;-72
2022/12/21 01:53:40;;;;;;;;;;;2.40;99.90;;;;;;4984952;28;19922;-71
2022/12/21 01:56:07;;;;;;;;;;;2.40;99.90;;;;;;4982354;28;19929;-72
2022/12/21 01:58:33;;;;;;;;;;;2.30;99.90;;;;;;4984814;28;19948;-71
2022/12/21 02:00:59;;;;;;;;;;;2.60;99.90;;;;;;4984668;28;19925;-72
2022/12/21 02:03:28;;;;;;;;;;;2.10;99.90;;;;;;4983164;28;19926;-72
2022/12/21 02:06:06;;;;;;;;;;;2.10;99.90;;;;;;4983969;28;19925;-71
2022/12/21 02:08:31;;;;;;;;;;;2.00;99.90;;;;;;4983702;28;19921;-72
2022/12/21 02:10:58;;;;;;;;;;;2.00;99.90;;;;;;4983615;28;19925;-72
2022/12/21 02:13:24;;;;;;;;;;;2.00;99.90;;;;;;4983714;28;20015;-72
2022/12/21 02:15:55;;;;;;;;;;;1.90;99.90;;;;;;4982654;28;19962;-71
2022/12/21 02:18:36;;;;;;;;;;;1.90;99.90;;;;;;4984285;28;20023;-72
2022/12/21 02:21:10;;;;;;;;;;;1.90;99.90;;;;;;4980180;28;19922;-71
2022/12/21 02:23:39;;;;;;;;;;;2.00;99.90;;;;;;4982074;28;19996;-72
2022/12/21 02:26:23;;;;;;;;;;;2.10;99.90;;;;;;4983405;28;19965;-72
2022/12/21 02:29:09;;;;;;;;;;;2.00;99.90;;;;;;4980530;28;20313;-71
2022/12/21 02:31:34;;;;;;;;;;;2.50;99.90;;;;;;4980801;28;20344;-72
2022/12/21 02:34:06;;;;;;;;;;;2.10;99.90;;;;;;4983270;28;19948;-71
2022/12/21 02:36:37;;;;;;;;;;;2.10;99.90;;;;;;4982342;28;20381;-71
2022/12/21 02:39:03;;;;;;;;;;;2.10;99.90;;;;;;4984481;28;19929;-71
2022/12/21 02:41:28;;;;;;;;;;;2.10;99.90;;;;;;4982699;28;19922;-71
2022/12/21 02:44:13;;;;;;;;;;;2.10;99.90;;;;;;4982221;28;20373;-71
2022/12/21 02:46:44;;;;;;;;;;;2.10;99.90;;;;;;4977254;28;19922;-71
2022/12/21 02:49:12;;;;;;;;;;;2.20;99.90;;;;;;4978891;28;20369;-71
2022/12/21 02:51:45;;;;;;;;;;;2.10;99.90;;;;;;4985155;28;19922;-71
2022/12/21 02:54:12;;;;;;;;;;;2.10;99.90;;;;;;4993517;28;20405;-71
2022/12/21 02:56:37;;;;;;;;;;;2.10;99.90;;;;;;4991699;28;19921;-71
2022/12/21 02:59:04;;;;;;;;;;;2.10;99.90;;;;;;4981202;28;19929;-71
2022/12/21 03:01:29;;;;;;;;;;;2.10;99.90;;;;;;4982811;28;19944;-71
2022/12/21 03:04:02;;;;;;;;;;;2.10;99.90;;;;;;4982323;28;20409;-71
2022/12/21 03:06:30;;;;;;;;;;;2.10;99.90;;;;;;4983429;28;20009;-72
2022/12/21 03:09:04;;;;;;;;;;;2.10;99.90;;;;;;4982206;28;19937;-71
2022/12/21 03:11:34;;;;;;;;;;;2.10;99.90;;;;;;4983512;28;19945;-72
2022/12/21 03:14:04;;;;;;;;;;;2.20;99.90;;;;;;4980703;28;20400;-71
2022/12/21 03:16:40;;;;;;;;;;;2.20;99.90;;;;;;4980629;28;19976;-71
2022/12/21 03:19:26;;;;;;;;;;;2.20;99.90;;;;;;4979441;28;19933;-71
2022/12/21 03:22:00;;;;;;;;;;;2.20;99.90;;;;;;4951794;28;19965;-71
2022/12/21 03:24:31;;;;;;;;;;;2.20;99.90;;;;;;4979529;28;20023;-71
2022/12/21 03:27:00;;;;;;;;;;;2.30;99.90;;;;;;4983133;28;19921;-71
2022/12/21 03:29:29;;;;;;;;;;;2.20;99.90;;;;;;4979048;28;20313;-71
2022/12/21 03:31:57;;;;;;;;;;;2.30;99.90;;;;;;4984319;28;19929;-71
2022/12/21 03:34:25;;;;;;;;;;;2.30;99.90;;;;;;4979465;28;20380;-71
2022/12/21 03:37:01;;;;;;;;;;;2.40;99.90;;;;;;4979362;28;19922;-71
2022/12/21 03:39:28;;;;;;;;;;;2.30;99.90;;;;;;4975805;28;19926;-71
2022/12/21 03:42:00;;;;;;;;;;;2.40;99.90;;;;;;4982309;28;19921;-71
2022/12/21 03:44:31;;;;;;;;;;;2.30;99.90;;;;;;4976027;28;20009;-71
2022/12/21 03:46:59;;;;;;;;;;;2.30;99.90;;;;;;4980709;28;19930;-71
2022/12/21 03:50:00;;;;;;;;;;;2.30;99.90;;;;;;4981277;28;19936;-71
2022/12/21 03:52:33;;;;;;;;;;;2.30;99.90;;;;;;4901367;29;19931;-71
2022/12/21 03:55:14;;;;;;;;;;;2.40;99.90;;;;;;4965393;28;19926;-71
2022/12/21 03:57:40;;;;;;;;;;;2.40;99.90;;;;;;4980818;28;19921;-71
2022/12/21 04:00:06;;;;;;;;;;;2.40;99.90;;;;;;4982346;28;19933;-71
2022/12/21 04:02:50;;;;;;;;;;;2.40;99.90;;;;;;4979648;28;19918;-71
2022/12/21 04:05:24;;;;;;;;;;;2.50;99.90;;;;;;4980874;28;19973;-71
2022/12/21 04:07:50;;;;;;;;;;;2.50;99.90;;;;;;4982688;28;19924;-71
2022/12/21 04:10:18;;;;;;;;;;;2.50;99.90;;;;;;4979377;28;19937;-71
2022/12/21 04:12:46;;;;;;;;;;;2.50;99.90;;;;;;4979802;28;19921;-71
2022/12/21 04:15:13;;;;;;;;;;;3.80;99.90;;;;;;4981723;28;19946;-71
2022/12/21 04:17:39;;;;;;;;;;;2.50;99.90;;;;;;4980166;28;19922;-71
2022/12/21 04:20:06;;;;;;;;;;;2.50;99.90;;;;;;4981526;28;19930;-71
2022/12/21 04:28:09;;;;;;;;;;;2.50;99.90;;;;;;4978950;28;20342;-71
2022/12/21 04:30:35;;;;;;;;;;;2.50;99.90;;;;;;4981488;28;19922;-71
2022/12/21 04:33:01;;;;;;;;;;;2.50;99.90;;;;;;4981452;28;19928;-70
2022/12/21 04:35:26;;;;;;;;;;;2.60;99.90;;;;;;4980087;28;20388;-71
2022/12/21 04:37:52;;;;;;;;;;;2.60;99.90;;;;;;4983041;28;19976;-71
2022/12/21 04:40:17;;;;;;;;;;;2.60;99.90;;;;;;4980179;28;19969;-71
2022/12/21 04:42:43;;;;;;;;;;;2.60;99.90;;;;;;4983450;28;19953;-71
2022/12/21 04:45:08;;;;;;;;;;;2.70;99.90;;;;;;4980954;28;19928;-71
2022/12/21 04:47:34;;;;;;;;;;;2.80;99.90;;;;;;4985619;28;20263;-71
2022/12/21 04:50:00;;;;;;;;;;;2.90;99.90;;;;;;4988516;28;19922;-71
2022/12/21 04:52:25;;;;;;;;;;;2.80;99.90;;;;;;4982085;28;19945;-72
2022/12/21 04:54:51;;;;;;;;;;;2.80;99.90;;;;;;4987539;28;20001;-71
2022/12/21 04:57:17;;;;;;;;;;;2.90;99.90;;;;;;4983551;28;19975;-71
2022/12/21 04:59:44;;;;;;;;;;;2.80;99.90;;;;;;4983275;28;20349;-72
2022/12/21 05:02:10;;;;;;;;;;;2.70;99.90;;;;;;4985446;28;19917;-72
2022/12/21 05:04:35;;;;;;;;;;;2.80;99.90;;;;;;4984630;28;19925;-71
2022/12/21 05:07:01;;;;;;;;;;;2.80;99.90;;;;;;4984038;28;20369;-71
2022/12/21 05:09:27;;;;;;;;;;;4.30;99.90;;;;;;4985608;28;19928;-71
2022/12/21 05:11:53;;;;;;;;;;;2.90;99.90;;;;;;4982905;28;19922;-71
2022/12/21 05:14:18;;;;;;;;;;;2.90;99.90;;;;;;4983245;28;20241;-71
2022/12/21 05:16:44;;;;;;;;;;;4.50;99.90;;;;;;4985867;28;20388;-71
2022/12/21 05:19:09;;;;;;;;;;;3.00;99.90;;;;;;4977626;28;20385;-71
2022/12/21 05:21:35;;;;;;;;;;;3.00;99.90;;;;;;4983265;28;19925;-71
2022/12/21 05:24:00;;;;;;;;;;;3.00;99.90;;;;;;4984812;28;20392;-71
2022/12/21 05:26:26;;;;;;;;;;;3.00;99.90;;;;;;4984023;28;19922;-71
2022/12/21 05:28:51;;;;;;;;;;;3.60;99.90;;;;;;4984046;28;19929;-71
2022/12/21 05:31:17;;;;;;;;;;;2.90;99.90;;;;;;4985887;28;19929;-71
2022/12/21 05:33:43;;;;;;;;;;;2.90;99.90;;;;;;4983053;28;19930;-71
2022/12/21 05:36:10;;;;;;;;;;;2.90;99.90;;;;;;4986875;28;20293;-71
2022/12/21 05:38:36;;;;;;;;;;;2.90;99.90;;;;;;4983047;28;19932;-71
2022/12/21 05:41:01;;;;;;;;;;;4.20;99.90;;;;;;4985601;28;19917;-71
2022/12/21 05:43:27;;;;;;;;;;;2.90;99.90;;;;;;4983147;28;20356;-71
2022/12/21 05:45:52;;;;;;;;;;;2.90;99.90;;;;;;4983345;28;20424;-71
2022/12/21 05:48:18;;;;;;;;;;;2.90;99.90;;;;;;4981887;28;19977;-71
2022/12/21 05:50:43;;;;;;;;;;;2.90;99.90;;;;;;4986411;28;19921;-71
2022/12/21 05:53:09;;;;;;;;;;;4.00;99.90;;;;;;4981552;28;19969;-71
2022/12/21 05:55:35;;;;;;;;;;;2.90;99.90;;;;;;4985444;28;19922;-71
2022/12/21 05:58:00;;;;;;;;;;;2.90;99.90;;;;;;4981925;28;20270;-71
2022/12/21 06:00:26;;;;;;;;;;;2.90;99.90;;;;;;4982552;28;20337;-71
2022/12/21 06:02:52;;;;;;;;;;;2.90;99.90;;;;;;4982807;28;19926;-71
2022/12/21 06:05:17;;;;;;;;;;;3.00;99.90;;;;;;4984916;28;19976;-71
2022/12/21 06:07:43;;;;;;;;;;;2.90;99.90;;;;;;4983954;28;19966;-71
2022/12/21 06:10:08;;;;;;;;;;;3.00;99.90;;;;;;4985339;28;19922;-71
2022/12/21 06:12:34;;;;;;;;;;;3.00;99.90;;;;;;4981956;28;19972;-71
2022/12/21 06:15:00;;;;;;;;;;;3.00;99.90;;;;;;4982215;28;20263;-71
2022/12/21 06:17:26;;;;;;;;;;;3.00;99.90;;;;;;4988581;28;19972;-71
2022/12/21 06:19:51;;;;;;;;;;;3.10;99.90;;;;;;4979549;28;20330;-71
2022/12/21 06:22:17;;;;;;;;;;;3.10;99.90;;;;;;4975284;28;19929;-71
2022/12/21 06:24:42;;;;;;;;;;;3.00;99.90;;;;;;4973578;28;19922;-71
2022/12/21 06:27:08;;;;;;;;;;;4.20;99.90;;;;;;4967957;28;19923;-71
2022/12/21 06:29:33;;;;;;;;;;;3.00;99.90;;;;;;4963492;28;20065;-71
2022/12/21 06:31:59;;;;;;;;;;;4.00;99.90;;;;;;4973252;28;19944;-71
2022/12/21 06:34:24;;;;;;;;;;;3.00;99.90;;;;;;4974111;28;20369;-71
2022/12/21 06:36:50;;;;;;;;;;;3.00;99.90;;;;;;4975317;28;19922;-71
2022/12/21 06:39:15;;;;;;;;;;;3.00;99.90;;;;;;4972796;28;19925;-72
2022/12/21 06:41:41;;;;;;;;;;;3.40;99.90;;;;;;4975107;28;19929;-71
2022/12/21 06:44:09;;;;;;;;;;;3.10;99.90;;;;;;4973578;28;19922;-71
2022/12/21 06:46:35;;;;;;;;;;;3.10;99.90;;;;;;4974959;28;20517;-71
2022/12/21 06:49:00;;;;;;;;;;;4.40;99.90;;;;;;4974847;28;20017;-71
2022/12/21 06:51:26;;;;;;;;;;;3.10;99.90;;;;;;4974266;28;20045;-71
2022/12/21 06:53:53;;;;;;;;;;;4.40;99.90;;;;;;4974266;28;19977;-72
2022/12/21 06:56:19;;;;;;;;;;;3.20;99.90;;;;;;4973252;28;19961;-71
2022/12/21 06:58:45;;;;;;;;;;;3.20;99.90;;;;;;4967171;28;19926;-72
2022/12/21 07:01:15;;;;;;;;;;;3.20;99.90;;;;;;4954636;29;20388;-71
2022/12/21 07:03:41;;;;;;;;;;;3.20;99.90;;;;;;4964770;28;19921;-71
2022/12/21 07:06:06;;;;;;;;;;;3.20;99.90;;;;;;4977013;28;19977;-71
2022/12/21 07:08:33;;;;;;;;;;;3.20;99.90;;;;;;4972086;28;20053;-71
2022/12/21 07:10:59;;;;;;;;;;;3.20;99.90;;;;;;4976285;28;19925;-73
2022/12/21 07:13:25;;;;;;;;;;;3.20;99.90;;;;;;4988202;28;19925;-73
2022/12/21 07:15:51;;;;;;;;;;;3.50;99.90;;;;;;4980543;28;19976;-73
2022/12/21 07:18:16;;;;;;;;;;;3.10;99.90;;;;;;4974185;28;20345;-74
2022/12/21 07:20:42;;;;;;;;;;;3.10;99.90;;;;;;4968540;28;19929;-73
2022/12/21 07:23:07;;;;;;;;;;;3.20;99.90;;;;;;4973834;28;19945;-73
2022/12/21 07:25:32;;;;;;;;;;;3.80;99.90;;;;;;4973669;28;19933;-78
2022/12/21 07:27:58;;;;;;;;;;;3.80;99.90;;;;;;4973551;28;19926;-81
2022/12/21 07:30:26;;;;;;;;;;;3.80;99.90;;;;;;4972990;28;19926;-76
2022/12/21 07:32:53;;;;;;;;;;;3.30;99.90;;;;;;4972638;28;20068;-76
2022/12/21 07:35:19;;;;;;;;;;;3.30;99.90;;;;;;4973313;28;19922;-74
2022/12/21 07:37:48;;;;;;;;;;;3.40;99.90;;;;;;4976461;28;19982;-74
2022/12/21 07:40:15;;;;;;;;;;;3.40;99.90;;;;;;4982210;28;19957;-75
2022/12/21 07:42:41;;;;;;;;;;;3.50;99.90;;;;;;4980793;28;20266;-76
2022/12/21 07:45:08;;;;;;;;;;;3.40;99.90;;;;;;4975909;28;19929;-74
2022/12/21 07:47:35;;;;;;;;;;;3.40;99.90;;;;;;4972859;28;19926;-75
2022/12/21 07:50:01;;;;;;;;;;;3.40;99.90;;;;;;4978823;28;19964;-75
2022/12/21 07:52:27;;;;;;;;;;;3.40;99.90;;;;;;4971843;28;20065;-75
2022/12/21 07:54:52;;;;;;;;;;;3.30;99.90;;;;;;4971241;28;20492;-74
2022/12/21 07:57:18;;;;;;;;;;;3.30;99.90;;;;;;4972076;28;19933;-76
2022/12/21 07:59:43;;;;;;;;;;;3.30;99.90;;;;;;4972086;28;19926;-77
2022/12/21 08:02:09;;;;;;;;;;;3.20;99.90;;;;;;4975678;28;20105;-74
2022/12/21 08:04:34;;;;;;;;;;;3.30;99.90;;;;;;4981951;28;19926;-77
2022/12/21 08:07:00;;;;;;;;;;;3.30;99.90;;;;;;4974137;28;19942;-75
2022/12/21 08:09:25;;;;;;;;;;;3.30;99.90;;;;;;4972516;28;19925;-72
2022/12/21 08:11:51;;;;;;;;;;;3.40;99.90;;;;;;4972815;28;20274;-73
2022/12/21 08:14:16;;;;;;;;;;;3.40;99.90;;;;;;4956947;28;20378;-74
2022/12/21 08:16:42;;;;;;;;;;;3.40;99.90;;;;;;4976538;28;19980;-72
2022/12/21 08:19:07;;;;;;;;;;;3.50;99.90;;;;;;4976912;28;19922;-74
2022/12/21 08:21:33;;;;;;;;;;;3.60;99.90;;;;;;4976371;28;20749;-75
2022/12/21 08:23:58;;;;;;;;;;;4.80;99.90;;;;;;4975362;28;19930;-78
2022/12/21 08:26:24;;;;;;;;;;;3.70;99.90;;;;;;4976699;28;20440;-79
2022/12/21 08:28:50;;;;;;;;;;;4.30;99.90;;;;;;4986364;28;20298;-77
2022/12/21 08:31:17;;;;;;;;;;;3.80;99.90;;;;;;4984204;28;20381;-76
2022/12/21 08:33:43;;;;;;;;;;;4.40;99.90;;;;;;4986238;28;20416;-76
2022/12/21 08:36:13;;;;;;;;;;;3.90;99.90;;;;;;4983875;28;20289;-76
2022/12/21 08:38:39;;;;;;;;;;;3.90;99.90;;;;;;4984831;28;20350;-76
2022/12/21 08:41:05;;;;;;;;;;;4.00;99.90;;;;;;4975721;28;19917;-72
2022/12/21 08:43:30;;;;;;;;;;;4.00;99.90;;;;;;4975359;28;19922;-74
2022/12/21 08:45:56;;;;;;;;;;;4.70;99.90;;;;;;4973509;28;19922;-73
2022/12/21 08:48:21;;;;;;;;;;;4.60;99.90;;;;;;4975184;28;19925;-73
2022/12/21 08:50:50;;;;;;;;;;;4.30;99.90;;;;;;4975301;28;19929;-73
2022/12/21 08:53:16;;;;;;;;;;;4.40;99.90;;;;;;4975957;28;20032;-73
2022/12/21 08:55:41;;;;;;;;;;;5.10;99.90;;;;;;4981409;28;19982;-73
2022/12/21 08:58:10;;;;;;;;;;;4.50;99.90;;;;;;4985031;28;19976;-78
2022/12/21 09:00:37;;;;;;;;;;;5.90;99.90;;;;;;4984666;28;20243;-75
2022/12/21 09:03:06;;;;;;;;;;;4.50;99.90;;;;;;4996468;28;19921;-76
2022/12/21 09:05:34;;;;;;;;;;;4.50;99.90;;;;;;4995609;28;19928;-75
2022/12/21 09:08:00;;;;;;;;;;;4.50;99.90;;;;;;4992118;28;19945;-76
2022/12/21 09:10:26;;;;;;;;;;;4.50;99.90;;;;;;4976580;28;19926;-76
2022/12/21 09:12:51;;;;;;;;;;;4.50;99.90;;;;;;4975881;28;20298;-80
2022/12/21 09:15:20;;;;;;;;;;;4.60;99.90;;;;;;4976851;28;19922;-74
2022/12/21 09:17:46;;;;;;;;;;;4.60;99.90;;;;;;4976816;28;19981;-74
2022/12/21 09:20:11;;;;;;;;;;;5.40;99.90;;;;;;4975488;28;19922;-77
2022/12/21 09:22:37;;;;;;;;;;;5.10;99.90;;;;;;4973955;28;19922;-74
2022/12/21 09:25:03;;;;;;;;;;;6.60;99.90;;;;;;4974149;28;19922;-77
2022/12/21 09:27:29;;;;;;;;;;;5.90;99.90;;;;;;4973758;28;20437;-77
2022/12/21 09:29:55;;;;;;;;;;;6.30;99.90;;;;;;4961857;28;19923;-77
2022/12/21 09:32:20;;;;;;;;;;;7.40;99.90;;;;;;4955879;28;19977;-77
2022/12/21 09:34:46;;;;;;;;;;;7.50;99.90;;;;;;4989674;28;19926;-77
2022/12/21 09:37:11;;;;;;;;;;;9.00;99.90;;;;;;4974218;28;20250;-77
2022/12/21 09:39:38;;;;;;;;;;;8.50;99.90;;;;;;4969326;28;20394;-77
2022/12/21 09:42:24;;;;;;;;;;;8.90;99.90;;;;;;4967925;28;19922;-77
2022/12/21 09:44:50;;;;;;;;;;;9.40;99.90;;;;;;4961486;28;19961;-77
2022/12/21 09:47:19;;;;;;;;;;;9.60;99.90;;;;;;4973207;28;19965;-75
2022/12/21 09:49:50;;;;;;;;;;;9.70;99.90;;;;;;4974386;28;20285;-76
2022/12/21 09:52:18;;;;;;;;;;;9.70;99.90;;;;;;4974235;28;20398;-80
2022/12/21 09:54:52;;;;;;;;;;;9.80;99.90;;;;;;4975703;28;19929;-80
2022/12/21 09:57:20;;;;;;;;;;;9.80;99.90;;;;;;4984444;28;19976;-76
2022/12/21 09:59:49;;;;;;;;;;;9.90;99.90;;;;;;4993742;28;19965;-75
2022/12/21 10:02:22;;;;;;;;;;;10.20;99.90;;;;;;4985024;28;20388;-79
2022/12/21 10:04:47;;;;;;;;;;;10.40;99.90;;;;;;4974745;28;19929;-80
2022/12/21 10:07:15;;;;;;;;;;;10.20;99.90;;;;;;4975714;28;19976;-79
2022/12/21 10:10:00;;;;;;;;;;;9.80;99.90;;;;;;4972357;28;19922;-78
2022/12/21 10:12:31;;;;;;;;;;;8.80;99.90;;;;;;4975249;28;20425;-80
2022/12/21 10:15:19;;;;;;;;;;;8.10;99.90;;;;;;4975711;28;20373;-80
2022/12/21 10:17:48;;;;;;;;;;;7.50;99.90;;;;;;4939385;28;19930;-78
2022/12/21 10:20:23;;;;;;;;;;;7.40;99.90;;;;;;4965380;28;20358;-79
2022/12/21 10:22:52;;;;;;;;;;;7.30;99.90;;;;;;4973457;28;19922;-78
2022/12/21 10:25:20;;;;;;;;;;;7.00;99.90;;;;;;4975000;28;19951;-88
2022/12/21 10:27:48;;;;;;;;;;;8.50;99.90;;;;;;4974344;28;20282;-79
2022/12/21 10:30:14;;;;;;;;;;;6.90;99.90;;;;;;4974570;28;20366;-79
2022/12/21 10:32:41;;;;;;;;;;;6.70;99.90;;;;;;4985426;28;19921;-80
2022/12/21 10:35:27;;;;;;;;;;;6.60;99.90;;;;;;4985754;28;19926;-76
2022/12/21 10:37:55;;;;;;;;;;;6.60;99.90;;;;;;4983970;28;19925;-79
2022/12/21 10:40:26;;;;;;;;;;;6.70;99.90;;;;;;4987335;28;19976;-81
2022/12/21 10:42:52;;;;;;;;;;;6.70;99.90;;;;;;4974193;28;19922;-81
2022/12/21 10:45:19;;;;;;;;;;;7.20;99.90;;;;;;4974565;28;20286;-80
2022/12/21 10:47:45;;;;;;;;;;;6.60;99.90;;;;;;4975222;28;19929;-82
2022/12/21 10:50:15;;;;;;;;;;;7.60;99.90;;;;;;4974010;28;19922;-81
2022/12/21 10:52:48;;;;;;;;;;;6.90;99.90;;;;;;4975643;28;19972;-89
2022/12/21 10:55:17;;;;;;;;;;;7.30;99.90;;;;;;4973944;28;19928;-87
2022/12/21 10:57:44;;;;;;;;;;;7.80;99.90;;;;;;4975491;28;20314;-85
2022/12/21 11:00:23;;;;;;;;;;;8.70;99.90;;;;;;4976378;28;20009;-88
2022/12/21 11:02:50;;;;;;;;;;;8.90;99.90;;;;;;4975989;28;19929;-84
2022/12/21 11:05:34;;;;;;;;;;;9.90;99.90;;;;;;4973260;28;19926;-75
2022/12/21 11:08:18;;;;;;;;;;;10.60;99.90;;;;;;4983167;28;19930;-76
2022/12/21 11:10:46;;;;;;;;;;;11.10;99.90;;;;;;4981757;28;20404;-76
2022/12/21 11:13:12;;;;;;;;;;;11.60;99.90;;;;;;4976708;28;19922;-76
2022/12/21 11:15:38;;;;;;;;;;;12.40;99.90;;;;;;4973776;28;20393;-75
2022/12/21 11:18:04;;;;;;;;;;;12.20;99.90;;;;;;4974748;28;19922;-76
2022/12/21 11:20:30;;;;;;;;;;;12.50;99.90;;;;;;4973870;28;19922;-75
2022/12/21 11:22:56;;;;;;;;;;;12.70;99.90;;;;;;4969700;28;19945;-79
2022/12/21 11:25:29;;;;;;;;;;;12.80;99.90;;;;;;4973910;28;20009;-75
2022/12/21 11:27:57;;;;;;;;;;;13.40;99.90;;;;;;4974294;28;19973;-75
2022/12/21 11:30:22;;;;;;;;;;;13.30;99.90;;;;;;4974191;28;19933;-76
2022/12/21 11:32:49;;;;;;;;;;;13.40;99.90;;;;;;4981745;28;19922;-76
2022/12/21 11:35:18;;;;;;;;;;;13.20;99.90;;;;;;4966826;28;20380;-76
2022/12/21 11:37:45;;;;;;;;;;;13.50;99.90;;;;;;4982814;28;20016;-75
2022/12/21 11:40:11;;;;;;;;;;;14.00;99.90;;;;;;4973256;28;19925;-76
2022/12/21 11:42:52;;;;;;;;;;;13.50;99.90;;;;;;4979690;28;19929;-75
2022/12/21 11:45:20;;;;;;;;;;;13.20;99.90;;;;;;4980821;28;20392;-77
2022/12/21 11:48:18;;;;;;;;;;;13.20;99.90;;;;;;4981281;28;19925;-76
2022/12/21 11:51:01;;;;;;;;;;;13.60;99.90;;;;;;4969621;28;19921;-76
2022/12/21 11:53:46;;;;;;;;;;;13.70;99.90;;;;;;4981726;28;19921;-76
2022/12/21 11:56:31;;;;;;;;;;;13.50;99.90;;;;;;4973605;28;19941;-74
2022/12/21 11:58:56;;;;;;;;;;;13.10;99.90;;;;;;4984846;28;19930;-76
2022/12/21 12:01:38;;;;;;;;;;;13.30;99.90;;;;;;4975188;28;19929;-75
2022/12/21 12:04:04;;;;;;;;;;;13.30;99.90;;;;;;4978002;28;19922;-78
2022/12/21 12:06:32;;;;;;;;;;;13.20;99.90;;;;;;4990022;28;19921;-78
2022/12/21 12:08:58;;;;;;;;;;;13.00;99.90;;;;;;4977694;28;20207;-77
2022/12/21 12:11:26;;;;;;;;;;;13.20;99.90;;;;;;4979903;28;20485;-78
2022/12/21 12:13:52;;;;;;;;;;;12.80;99.90;;;;;;4985491;28;20276;-79
2022/12/21 12:16:24;;;;;;;;;;;12.90;99.90;;;;;;4975959;28;19929;-80
2022/12/21 12:19:15;;;;;;;;;;;12.40;99.90;;;;;;4979969;28;19922;-89
2022/12/21 12:21:54;;;;;;;;;;;12.20;99.90;;;;;;4973561;28;19925;-79
2022/12/21 12:24:39;;;;;;;;;;;11.80;99.90;;;;;;4974170;28;19961;-75
2022/12/21 12:27:10;;;;;;;;;;;11.40;99.90;;;;;;4972747;28;20463;-76
2022/12/21 12:29:52;;;;;;;;;;;10.60;99.90;;;;;;4972960;28;19926;-75
2022/12/21 12:32:36;;;;;;;;;;;10.00;99.90;;;;;;4972238;28;20294;-74
2022/12/21 12:35:11;;;;;;;;;;;9.30;99.90;;;;;;4954331;28;20318;-73
2022/12/21 12:37:45;;;;;;;;;;;8.80;99.90;;;;;;4952059;28;19938;-75
2022/12/21 12:40:17;;;;;;;;;;;8.20;99.90;;;;;;4990237;28;19921;-72
2022/12/21 12:42:51;;;;;;;;;;;8.10;99.90;;;;;;4974404;28;19929;-74
2022/12/21 12:45:35;;;;;;;;;;;7.90;99.90;;;;;;4973178;28;20039;-72
2022/12/21 12:48:23;;;;;;;;;;;7.90;99.90;;;;;;4972761;28;19930;-72
2022/12/21 12:50:57;;;;;;;;;;;7.70;99.90;;;;;;4973226;28;19922;-74
2022/12/21 12:53:30;;;;;;;;;;;7.80;99.90;;;;;;4987709;28;20000;-79
2022/12/21 12:56:11;;;;;;;;;;;7.80;99.90;;;;;;4991914;28;20025;-78
2022/12/21 12:58:44;;;;;;;;;;;7.80;99.90;;;;;;4992352;28;19972;-76
2022/12/21 13:01:46;;;;;;;;;;;7.60;99.90;;;;;;4990548;28;19944;-77
2022/12/21 13:04:20;;;;;;;;;;;7.70;99.90;;;;;;4899465;29;19934;-75
2022/12/21 13:06:46;;;;;;;;;;;7.70;99.90;;;;;;4966158;28;19926;-73
2022/12/21 13:09:20;;;;;;;;;;;7.90;99.90;;;;;;4985468;28;20406;-75
2022/12/21 13:11:55;;;;;;;;;;;7.50;99.90;;;;;;4976395;28;19973;-76
2022/12/21 13:14:26;;;;;;;;;;;7.60;99.90;;;;;;4974394;28;20550;-75
2022/12/21 13:16:57;;;;;;;;;;;7.80;99.90;;;;;;4974734;28;20456;-75
2022/12/21 13:19:23;;;;;;;;;;;8.50;99.90;;;;;;4974666;28;20013;-74
2022/12/21 13:21:50;;;;;;;;;;;7.70;99.90;;;;;;4973806;28;19925;-75
2022/12/21 13:24:29;;;;;;;;;;;8.00;99.90;;;;;;4975311;28;20012;-75
2022/12/21 13:26:56;;;;;;;;;;;7.90;99.90;;;;;;4974220;28;19926;-74
2022/12/21 13:29:23;;;;;;;;;;;7.90;99.90;;;;;;4975029;28;19929;-75
2022/12/21 13:32:01;;;;;;;;;;;8.00;99.90;;;;;;4974147;28;19922;-75
2022/12/21 13:35:05;;;;;;;;;;;7.90;99.90;;;;;;4975284;28;19922;-76
2022/12/21 13:37:31;;;;;;;;;;;7.90;99.90;;;;;;4952976;29;20730;-76
2022/12/21 13:40:20;;;;;;;;;;;7.80;99.90;;;;;;4937171;29;19923;-75
2022/12/21 13:42:52;;;;;;;;;;;7.90;99.90;;;;;;4959460;28;19926;-75
2022/12/21 13:45:38;;;;;;;;;;;7.90;99.90;;;;;;4977350;28;19933;-78
2022/12/21 13:48:05;;;;;;;;;;;7.90;99.90;;;;;;4992088;28;19928;-79
2022/12/21 13:50:49;;;;;;;;;;;7.90;99.90;;;;;;4994802;28;19921;-83
2022/12/21 13:53:18;;;;;;;;;;;7.80;99.90;;;;;;4977636;28;19921;-76
2022/12/21 13:55:50;;;;;;;;;;;7.80;99.90;;;;;;4974666;28;20393;-76
2022/12/21 13:58:25;;;;;;;;;;;7.80;99.90;;;;;;4971586;28;19922;-75
2022/12/21 14:00:53;;;;;;;;;;;7.80;99.90;;;;;;4974180;28;20382;-77
2022/12/21 14:03:25;;;;;;;;;;;7.80;99.90;;;;;;4976434;28;19929;-75
2022/12/21 14:05:50;;;;;;;;;;;7.90;99.90;;;;;;4982900;28;20013;-75
2022/12/21 14:08:25;;;;;;;;;;;7.80;99.90;;;;;;4981173;28;20025;-75
2022/12/21 14:11:10;;;;;;;;;;;7.80;99.90;;;;;;4986857;28;19976;-76
2022/12/21 14:13:39;;;;;;;;;;;7.80;99.90;;;;;;4992566;28;20389;-75
2022/12/21 14:16:14;;;;;;;;;;;7.80;99.90;;;;;;4992418;28;19921;-75
2022/12/21 14:18:40;;;;;;;;;;;7.60;99.90;;;;;;4993804;28;20021;-77
2022/12/21 14:21:11;;;;;;;;;;;7.70;99.90;;;;;;4992724;28;20038;-78
2022/12/21 14:23:47;;;;;;;;;;;7.80;99.90;;;;;;4973083;28;20373;-78
2022/12/21 14:26:31;;;;;;;;;;;7.80;99.90;;;;;;4973444;28;19921;-76
2022/12/21 14:29:03;;;;;;;;;;;7.70;99.90;;;;;;4972483;28;19922;-77
2022/12/21 14:31:30;;;;;;;;;;;7.60;99.90;;;;;;4973510;28;19977;-76
2022/12/21 14:33:56;;;;;;;;;;;7.50;99.90;;;;;;4974758;28;19926;-76
2022/12/21 14:36:22;;;;;;;;;;;7.50;99.90;;;;;;4974177;28;20362;-75
2022/12/21 14:38:59;;;;;;;;;;;7.50;99.90;;;;;;4973823;28;19976;-75
2022/12/21 14:41:32;;;;;;;;;;;7.50;99.90;;;;;;4975025;28;19926;-77
2022/12/21 14:44:14;;;;;;;;;;;7.40;99.90;;;;;;4973032;28;19926;-76
2022/12/21 14:47:00;;;;;;;;;;;7.30;99.90;;;;;;4974114;28;19922;-77